Capitol Logistics 264


KCLT
Charlotte/Douglas International Airport
Charlotte, North Carolina, US
KMIA
Miami International Airport
Miami, Florida, US

Route Details

Aircraft Information
Primary: Boeing 767-300BDSF
Backup: Not Available
Route Data
Distance: 567nm
Sched. Duration: 1h 56m
Avg. Duration: 1h 44m (-11m)
Times Flown: 5
Recm'd Route: ICONS4 NOOKS WURFL Q83 JEVED Q97 KENLL OMN HILEY7
Planned Altitude: 36,000ft
Origin Wx: KCLT 051352Z 23006KT 10SM BKN009 OVC017 23/19 A3001 RMK AO2 SLP152 T02280189
Dest. Wx: KMIA 051353Z 13008KT 10SM BKN016 BKN200 OVC250 29/26 A3004 RMK AO2 SLP171 T02940261
Notes:

Financial History
Total Freight: 396,159lbs
Average Load: 79,232lbs/flt
Fuel Used: 88,429lbs
Avg. Fuel Used: 17,686lbs/flt
Fuel Expense: $74,280
Avg. Fuel Expense: $14,856
Avg. Fuel Cost: $0.84/lbs
Total Gross Income: $531,051
Pilot Pay: $1,105
Total Expenses: $57,614
Total Revenue: $397,319
Average Revenue: $106,210.27